createdAt,value
2023-07-14T00:00:03.968Z,0.00
2023-07-14T00:01:04.006Z,0.00
2023-07-14T00:02:03.985Z,0.00
2023-07-14T00:03:04.057Z,0.00
2023-07-14T00:04:03.954Z,0.00
2023-07-14T00:05:03.949Z,0.00
2023-07-14T00:06:03.948Z,0.00
2023-07-14T00:07:03.865Z,0.00
2023-07-14T00:08:03.898Z,0.00
2023-07-14T00:09:03.865Z,0.00
2023-07-14T00:10:03.854Z,0.00
2023-07-14T00:11:03.856Z,0.00
2023-07-14T00:12:03.881Z,0.00
2023-07-14T00:13:03.860Z,0.00
2023-07-14T00:14:03.808Z,0.00
2023-07-14T00:15:03.829Z,0.00
2023-07-14T00:16:03.838Z,0.00
2023-07-14T00:17:03.852Z,0.00
2023-07-14T00:18:03.796Z,0.00
2023-07-14T00:19:03.833Z,0.00
2023-07-14T00:20:03.749Z,0.00
2023-07-14T00:21:03.773Z,0.00
2023-07-14T00:22:03.760Z,0.00
2023-07-14T00:23:03.798Z,0.00
2023-07-14T00:24:03.713Z,0.00
2023-07-14T00:25:03.738Z,0.00
2023-07-14T00:26:03.735Z,0.00
2023-07-14T00:27:03.752Z,0.00
2023-07-14T00:28:03.689Z,0.00
2023-07-14T00:29:03.777Z,0.00
2023-07-14T00:30:03.648Z,0.00
2023-07-14T00:31:03.689Z,0.00
2023-07-14T00:32:03.656Z,0.00
2023-07-14T00:33:03.677Z,0.00
2023-07-14T00:34:03.593Z,0.00
2023-07-14T00:35:03.692Z,0.00
2023-07-14T00:36:03.560Z,0.00
2023-07-14T00:37:03.585Z,0.00
2023-07-14T00:38:03.565Z,0.00
2023-07-14T00:39:03.559Z,0.00
2023-07-14T00:40:03.597Z,0.00
2023-07-14T00:41:03.549Z,0.00
2023-07-14T00:42:03.524Z,0.00
2023-07-14T00:43:03.559Z,0.00
2023-07-14T00:44:03.467Z,0.00
2023-07-14T00:45:03.542Z,0.00
2023-07-14T00:46:03.464Z,0.00
2023-07-14T00:47:03.495Z,0.00
2023-07-14T00:48:03.515Z,0.00
2023-07-14T00:49:03.494Z,0.00
2023-07-14T00:50:03.496Z,0.00
2023-07-14T00:51:03.476Z,0.00
2023-07-14T00:52:03.408Z,0.00
2023-07-14T00:53:03.437Z,0.00
2023-07-14T00:54:03.385Z,0.00
2023-07-14T00:55:03.400Z,0.00
2023-07-14T00:56:03.326Z,0.00
2023-07-14T00:57:03.362Z,0.00
2023-07-14T00:58:03.348Z,0.00
2023-07-14T00:59:03.379Z,0.00
2023-07-14T01:00:03.332Z,0.00
2023-07-14T01:01:03.365Z,0.00
2023-07-14T01:02:03.389Z,0.00
2023-07-14T01:03:03.405Z,0.00
2023-07-14T01:04:03.285Z,0.00
2023-07-14T01:05:03.448Z,0.00
2023-07-14T01:06:03.255Z,0.00
2023-07-14T01:07:03.268Z,0.00
2023-07-14T01:08:03.232Z,0.00
2023-07-14T01:09:03.252Z,0.00
2023-07-14T01:10:03.183Z,0.00
2023-07-14T01:11:03.248Z,0.00
2023-07-14T01:12:03.152Z,0.00
2023-07-14T01:13:03.279Z,0.00
2023-07-14T01:14:03.171Z,0.00
2023-07-14T01:15:03.166Z,0.00
2023-07-14T01:16:03.234Z,0.00
2023-07-14T01:17:03.142Z,0.00
2023-07-14T01:18:03.185Z,0.00
2023-07-14T01:19:03.092Z,0.00
2023-07-14T01:20:03.061Z,0.00
2023-07-14T01:21:03.109Z,0.00
2023-07-14T01:22:03.061Z,0.00
2023-07-14T01:23:03.197Z,0.00
2023-07-14T01:24:03.118Z,0.00
2023-07-14T01:25:03.052Z,0.00
2023-07-14T01:26:03.009Z,0.00
2023-07-14T01:27:03.040Z,0.00
2023-07-14T01:28:03.111Z,0.00
2023-07-14T01:29:02.996Z,0.00
2023-07-14T01:30:02.988Z,0.00
2023-07-14T01:31:03.035Z,0.00
2023-07-14T01:32:03.029Z,0.00
2023-07-14T01:33:03.002Z,0.00
2023-07-14T01:34:02.988Z,0.00
2023-07-14T01:35:02.961Z,0.00
2023-07-14T01:36:02.894Z,0.00
2023-07-14T01:37:02.967Z,0.00
2023-07-14T01:38:02.885Z,0.00
2023-07-14T01:39:02.913Z,0.00
2023-07-14T01:40:02.836Z,0.00
2023-07-14T01:41:02.881Z,0.00
2023-07-14T01:42:02.852Z,0.00
2023-07-14T01:43:02.872Z,0.00
2023-07-14T01:44:02.864Z,0.00
2023-07-14T01:45:02.879Z,0.00
2023-07-14T01:46:02.807Z,0.00
2023-07-14T01:47:02.848Z,0.00
2023-07-14T01:48:02.791Z,0.00
2023-07-14T01:49:02.794Z,0.00
2023-07-14T01:50:02.751Z,0.00
2023-07-14T01:51:02.852Z,0.00
2023-07-14T01:52:02.735Z,0.00
2023-07-14T01:53:02.777Z,0.00
2023-07-14T01:54:02.706Z,0.00
2023-07-14T01:55:02.724Z,0.00
2023-07-14T01:56:02.717Z,0.00
2023-07-14T01:57:02.821Z,0.00
2023-07-14T01:58:02.708Z,0.00
2023-07-14T01:59:02.670Z,0.00
2023-07-14T02:00:02.685Z,0.00
2023-07-14T02:01:02.676Z,0.00
2023-07-14T02:02:02.684Z,0.00
2023-07-14T02:03:02.841Z,0.00
2023-07-14T02:04:02.594Z,0.00
2023-07-14T02:05:02.605Z,0.00
2023-07-14T02:06:02.570Z,0.00
2023-07-14T02:07:02.675Z,0.00
2023-07-14T02:08:02.568Z,0.00
2023-07-14T02:09:02.567Z,0.00
2023-07-14T02:10:02.605Z,0.00
2023-07-14T02:11:02.562Z,0.00
2023-07-14T02:12:02.547Z,0.00
2023-07-14T02:13:02.581Z,0.00
2023-07-14T02:14:02.505Z,0.00
2023-07-14T02:15:02.524Z,0.00
2023-07-14T02:16:02.461Z,0.00
2023-07-14T02:17:02.572Z,0.00
2023-07-14T02:18:02.479Z,0.00
2023-07-14T02:19:02.454Z,0.00
2023-07-14T02:20:02.498Z,0.00
2023-07-14T02:21:02.542Z,0.00
2023-07-14T02:22:02.434Z,0.00
2023-07-14T02:23:02.770Z,0.00
2023-07-14T02:24:02.422Z,0.00
2023-07-14T02:25:02.393Z,0.00
2023-07-14T02:26:02.370Z,0.00
2023-07-14T02:27:02.454Z,0.00
2023-07-14T02:28:02.340Z,0.00
2023-07-14T02:29:02.411Z,0.00
2023-07-14T02:30:02.316Z,0.00
2023-07-14T02:31:02.513Z,0.00
2023-07-14T02:32:02.298Z,0.00
2023-07-14T02:33:02.446Z,0.00
2023-07-14T02:34:02.279Z,0.00
2023-07-14T02:35:02.333Z,0.00
2023-07-14T02:36:02.320Z,0.00
2023-07-14T02:37:02.249Z,0.00
2023-07-14T02:38:02.553Z,0.00
2023-07-14T02:39:02.220Z,0.00
2023-07-14T02:40:02.255Z,0.00
2023-07-14T02:41:02.206Z,0.00
2023-07-14T02:42:02.204Z,0.00
2023-07-14T02:43:02.948Z,0.00
2023-07-14T02:44:02.154Z,0.00
2023-07-14T02:45:02.286Z,0.00
2023-07-14T02:46:02.258Z,0.00
2023-07-14T02:47:02.286Z,0.00
2023-07-14T02:48:02.197Z,0.00
2023-07-14T02:49:02.139Z,0.00
2023-07-14T02:50:02.155Z,0.00
2023-07-14T02:51:02.197Z,0.00
2023-07-14T02:52:02.083Z,0.00
2023-07-14T02:53:02.079Z,0.00
2023-07-14T02:54:02.037Z,0.00
2023-07-14T02:55:02.043Z,0.00
2023-07-14T02:56:02.134Z,0.00
2023-07-14T02:57:01.985Z,0.00
2023-07-14T02:58:02.072Z,0.00
2023-07-14T02:59:02.046Z,0.00
2023-07-14T03:00:01.970Z,0.00
2023-07-14T03:01:01.941Z,0.00
2023-07-14T03:02:01.988Z,0.00
2023-07-14T03:03:02.005Z,0.00
2023-07-14T03:04:02.064Z,0.00
2023-07-14T03:05:01.927Z,0.00
2023-07-14T03:06:01.925Z,0.00
2023-07-14T03:07:01.916Z,0.00
2023-07-14T03:08:01.876Z,4.00
2023-07-14T03:09:01.996Z,4.00
2023-07-14T03:10:01.940Z,4.00
2023-07-14T03:11:01.864Z,0.00
2023-07-14T03:12:01.927Z,0.00
2023-07-14T03:13:01.928Z,4.00
2023-07-14T03:14:01.870Z,4.00
2023-07-14T03:15:01.849Z,4.00
2023-07-14T03:16:01.874Z,4.00
2023-07-14T03:17:01.871Z,4.00
2023-07-14T03:18:01.874Z,4.00
2023-07-14T03:19:01.797Z,4.00
2023-07-14T03:20:01.774Z,4.00
2023-07-14T03:21:01.794Z,8.00
2023-07-14T03:22:01.801Z,4.00
2023-07-14T03:23:01.906Z,8.00
2023-07-14T03:24:01.722Z,8.00
2023-07-14T03:25:01.781Z,8.00
2023-07-14T03:26:01.685Z,8.00
2023-07-14T03:27:01.739Z,12.00
2023-07-14T03:28:01.729Z,8.00
2023-07-14T03:29:01.699Z,8.00
2023-07-14T03:30:01.675Z,12.00
2023-07-14T03:31:01.676Z,12.00
2023-07-14T03:32:01.695Z,12.00
2023-07-14T03:33:01.654Z,16.00
2023-07-14T03:34:01.599Z,12.00
2023-07-14T03:35:01.646Z,16.00
2023-07-14T03:36:01.575Z,20.00
2023-07-14T03:37:01.639Z,20.00
2023-07-14T03:38:01.609Z,20.00
2023-07-14T03:39:01.574Z,24.00
2023-07-14T03:40:01.532Z,24.00
2023-07-14T03:41:01.559Z,28.00
2023-07-14T03:42:01.550Z,32.00
2023-07-14T03:43:01.602Z,32.00
2023-07-14T03:44:01.534Z,32.00
2023-07-14T03:45:01.650Z,36.00
2023-07-14T03:46:01.740Z,36.00
2023-07-14T03:47:01.573Z,36.00
2023-07-14T03:48:01.537Z,36.00
2023-07-14T03:49:01.469Z,40.00
2023-07-14T03:50:01.475Z,40.00
2023-07-14T03:51:01.690Z,44.00
2023-07-14T03:52:01.403Z,44.00
2023-07-14T03:53:01.444Z,48.00
2023-07-14T03:54:01.382Z,48.00
2023-07-14T03:55:01.510Z,52.00
2023-07-14T03:56:01.388Z,56.00
2023-07-14T03:57:01.431Z,56.00
2023-07-14T03:58:03.709Z,60.00
2023-07-14T03:59:01.341Z,60.00
2023-07-14T04:00:01.335Z,64.00
2023-07-14T04:01:01.656Z,68.00
2023-07-14T04:02:01.295Z,68.00
2023-07-14T04:03:01.385Z,68.00
2023-07-14T04:04:01.663Z,72.00
2023-07-14T04:05:01.263Z,72.00
2023-07-14T04:06:01.229Z,72.00
2023-07-14T04:07:01.225Z,76.00
2023-07-14T04:08:01.223Z,80.00
2023-07-14T04:09:01.270Z,80.00
2023-07-14T04:10:01.265Z,80.00
2023-07-14T04:11:01.193Z,84.00
2023-07-14T04:12:01.275Z,88.00
2023-07-14T04:13:01.158Z,92.00
2023-07-14T04:14:01.201Z,96.00
2023-07-14T04:15:01.131Z,100.00
2023-07-14T04:16:01.175Z,104.00
2023-07-14T04:17:01.154Z,112.00
2023-07-14T04:18:01.230Z,116.00
2023-07-14T04:19:01.156Z,120.00
2023-07-14T04:20:01.142Z,128.00
2023-07-14T04:21:01.146Z,132.00
2023-07-14T04:22:01.056Z,136.00
2023-07-14T04:23:01.153Z,140.00
2023-07-14T04:24:01.167Z,148.00
2023-07-14T04:25:01.041Z,152.00
2023-07-14T04:26:01.036Z,156.00
2023-07-14T04:27:01.099Z,160.00
2023-07-14T04:28:01.300Z,164.00
2023-07-14T04:29:01.078Z,176.00
2023-07-14T04:30:01.030Z,188.00
2023-07-14T04:31:01.171Z,200.00
2023-07-14T04:32:01.120Z,208.00
2023-07-14T04:33:01.112Z,216.00
2023-07-14T04:34:00.953Z,224.00
2023-07-14T04:35:01.030Z,232.00
2023-07-14T04:36:00.962Z,236.00
2023-07-14T04:37:01.061Z,240.00
2023-07-14T04:38:00.919Z,244.00
2023-07-14T04:39:00.959Z,256.00
2023-07-14T04:40:01.170Z,260.00
2023-07-14T04:41:00.889Z,268.00
2023-07-14T04:42:00.840Z,272.00
2023-07-14T04:43:00.826Z,280.00
2023-07-14T04:44:00.820Z,288.00
2023-07-14T04:45:00.801Z,288.00
2023-07-14T04:46:00.848Z,296.00
2023-07-14T04:47:00.820Z,296.00
2023-07-14T04:48:00.879Z,296.00
2023-07-14T04:49:00.822Z,300.00
2023-07-14T04:50:00.783Z,304.00
2023-07-14T04:51:00.895Z,312.00
2023-07-14T04:52:00.809Z,312.00
2023-07-14T04:53:00.835Z,316.00
2023-07-14T04:54:00.736Z,316.00
2023-07-14T04:55:00.725Z,320.00
2023-07-14T04:56:00.708Z,324.00
2023-07-14T04:57:00.712Z,324.00
2023-07-14T04:58:00.667Z,332.00
2023-07-14T04:59:00.709Z,324.00
2023-07-14T05:00:00.654Z,328.00
2023-07-14T05:01:00.700Z,328.00
2023-07-14T05:02:00.672Z,328.00
2023-07-14T05:03:00.722Z,340.00
2023-07-14T05:04:00.615Z,380.00
2023-07-14T05:05:01.556Z,416.00
2023-07-14T05:06:00.602Z,420.00
2023-07-14T05:07:00.616Z,404.00
2023-07-14T05:08:00.567Z,396.00
2023-07-14T05:09:00.532Z,392.00
2023-07-14T05:10:00.575Z,416.00
2023-07-14T05:11:00.516Z,460.00
2023-07-14T05:12:00.517Z,464.00
2023-07-14T05:13:00.547Z,460.00
2023-07-14T05:14:00.499Z,448.00
2023-07-14T05:15:00.487Z,424.00
2023-07-14T05:16:00.560Z,432.00
2023-07-14T05:17:00.450Z,448.00
2023-07-14T05:18:00.496Z,464.00
2023-07-14T05:19:00.491Z,488.00
2023-07-14T05:20:00.432Z,488.00
2023-07-14T05:21:00.575Z,468.00
2023-07-14T05:22:00.421Z,452.00
2023-07-14T05:23:00.589Z,444.00
2023-07-14T05:24:03.153Z,472.00
2023-07-14T05:25:00.433Z,500.00
2023-07-14T05:26:00.435Z,488.00
2023-07-14T05:27:00.333Z,480.00
2023-07-14T05:28:00.346Z,484.00
2023-07-14T05:29:00.392Z,504.00
2023-07-14T05:30:00.486Z,524.00
2023-07-14T05:31:02.318Z,552.00
2023-07-14T05:32:00.300Z,544.00
2023-07-14T05:33:00.396Z,520.00
2023-07-14T05:34:00.312Z,544.00
2023-07-14T05:35:00.313Z,568.00
2023-07-14T05:36:00.364Z,628.00
2023-07-14T05:37:00.383Z,632.00
2023-07-14T05:38:00.308Z,704.00
2023-07-14T05:39:00.290Z,768.00
2023-07-14T05:40:00.282Z,872.00
2023-07-14T05:41:00.215Z,868.00
2023-07-14T05:42:00.229Z,872.00
2023-07-14T05:43:00.215Z,940.00
2023-07-14T05:44:00.189Z,988.00
2023-07-14T05:45:00.230Z,1052.00
2023-07-14T05:46:00.220Z,1064.00
2023-07-14T05:47:00.210Z,1032.00
2023-07-14T05:48:00.205Z,1060.00
2023-07-14T05:49:00.182Z,1120.00
2023-07-14T05:50:00.148Z,1092.00
2023-07-14T05:51:00.153Z,1108.00
2023-07-14T05:52:00.103Z,1192.00
2023-07-14T05:53:00.078Z,1232.00
2023-07-14T05:54:00.164Z,1240.00
2023-07-14T05:55:00.145Z,1268.00
2023-07-14T05:56:00.049Z,1284.00
2023-07-14T05:57:00.086Z,1356.00
2023-07-14T05:58:00.010Z,1304.00
2023-07-14T05:59:00.006Z,1384.00
2023-07-14T06:00:00.053Z,1428.00
2023-07-14T06:01:00.028Z,1516.00
2023-07-14T06:02:00.019Z,1484.00
2023-07-14T06:03:00.072Z,1472.00
2023-07-14T06:03:59.964Z,1416.00
2023-07-14T06:05:00.025Z,1412.00
2023-07-14T06:05:59.942Z,1396.00
2023-07-14T06:06:59.969Z,1416.00
2023-07-14T06:07:59.952Z,1532.00
2023-07-14T06:08:59.965Z,1592.00
2023-07-14T06:09:59.903Z,1748.00
2023-07-14T06:10:59.958Z,1788.00
2023-07-14T06:11:59.867Z,1656.00
2023-07-14T06:12:59.917Z,1688.00
2023-07-14T06:13:59.875Z,1632.00
2023-07-14T06:14:59.866Z,1732.00
2023-07-14T06:15:59.893Z,1660.00
2023-07-14T06:16:59.910Z,1708.00
2023-07-14T06:17:59.836Z,1736.00
2023-07-14T06:18:59.754Z,1744.00
2023-07-14T06:19:59.768Z,1876.00
2023-07-14T06:20:59.786Z,1908.00
2023-07-14T06:21:59.754Z,2048.00
2023-07-14T06:22:59.806Z,2144.00
2023-07-14T06:23:59.794Z,2188.00
2023-07-14T06:24:59.786Z,2276.00
2023-07-14T06:25:59.776Z,2328.00
2023-07-14T06:26:59.820Z,2528.00
2023-07-14T06:27:59.737Z,2616.00
2023-07-14T06:28:59.693Z,2648.00
2023-07-14T06:29:59.705Z,2864.00
2023-07-14T06:30:59.773Z,3024.00
2023-07-14T06:31:59.700Z,3152.00
2023-07-14T06:32:59.625Z,3268.00
2023-07-14T06:33:59.662Z,3348.00
2023-07-14T06:34:59.691Z,3520.00
2023-07-14T06:35:59.608Z,3608.00
2023-07-14T06:36:59.555Z,3640.00
2023-07-14T06:37:59.567Z,3724.00
2023-07-14T06:38:59.605Z,3696.00
2023-07-14T06:39:59.579Z,3904.00
2023-07-14T06:40:59.539Z,4044.00
2023-07-14T06:41:59.605Z,4188.00
2023-07-14T06:42:59.528Z,3756.00
2023-07-14T06:44:08.574Z,4232.00
2023-07-14T06:45:00.544Z,4568.00
2023-07-14T06:45:59.529Z,4980.00
2023-07-14T06:46:59.538Z,4988.00
2023-07-14T06:47:59.568Z,4812.00
2023-07-14T06:49:07.749Z,4976.00
2023-07-14T06:50:00.478Z,5044.00
2023-07-14T06:50:59.486Z,5216.00
2023-07-14T06:51:59.436Z,5688.00
2023-07-14T06:52:59.487Z,5864.00
2023-07-14T06:53:59.487Z,5888.00
2023-07-14T06:54:59.382Z,5804.00
2023-07-14T06:55:59.338Z,5928.00
2023-07-14T06:56:59.324Z,5732.00
2023-07-14T06:57:59.354Z,5844.00
2023-07-14T06:58:59.312Z,5984.00
2023-07-14T06:59:59.365Z,6076.00
2023-07-14T07:00:59.273Z,5664.00
2023-07-14T07:01:59.328Z,5648.00
2023-07-14T07:02:59.318Z,6212.00
2023-07-14T07:03:59.253Z,5624.00
2023-07-14T07:04:59.370Z,6052.00
2023-07-14T07:05:59.277Z,5888.00
2023-07-14T07:06:59.345Z,6028.00
2023-07-14T07:07:59.216Z,6400.00
2023-07-14T07:08:59.283Z,5948.00
2023-07-14T07:09:59.249Z,6196.00
2023-07-14T07:10:59.348Z,6020.00
2023-07-14T07:11:59.186Z,6432.00
2023-07-14T07:12:59.195Z,6740.00
2023-07-14T07:13:59.125Z,6136.00
2023-07-14T07:14:59.173Z,7108.00
2023-07-14T07:15:59.128Z,7272.00
2023-07-14T07:16:59.184Z,6992.00
2023-07-14T07:17:59.220Z,6768.00
2023-07-14T07:18:59.078Z,6796.00
2023-07-14T07:19:59.109Z,7744.00
2023-07-14T07:20:59.163Z,8124.00
2023-07-14T07:21:59.079Z,7680.00
2023-07-14T07:22:59.214Z,7896.00
2023-07-14T07:23:59.117Z,8016.00
2023-07-14T07:24:59.074Z,8032.00
2023-07-14T07:25:59.033Z,8096.00
2023-07-14T07:26:59.078Z,8216.00
2023-07-14T07:27:59.075Z,8300.00
2023-07-14T07:28:59.018Z,8128.00
2023-07-14T07:29:59.021Z,8360.00
2023-07-14T07:30:59.211Z,8232.00
2023-07-14T07:31:59.057Z,8172.00
2023-07-14T07:32:58.974Z,8316.00
2023-07-14T07:33:58.944Z,8288.00
2023-07-14T07:34:58.920Z,7776.00
2023-07-14T07:35:58.954Z,8028.00
2023-07-14T07:36:58.916Z,8372.00
2023-07-14T07:37:58.876Z,8756.00
2023-07-14T07:38:58.864Z,8920.00
2023-07-14T07:39:58.878Z,8628.00
2023-07-14T07:40:58.866Z,8872.00
2023-07-14T07:41:58.934Z,9216.00
2023-07-14T07:42:58.877Z,9296.00
2023-07-14T07:43:58.855Z,9548.00
2023-07-14T07:44:58.920Z,9076.00
2023-07-14T07:45:58.871Z,9276.00
2023-07-14T07:46:58.841Z,9196.00
2023-07-14T07:47:58.803Z,9600.00
2023-07-14T07:48:58.835Z,9508.00
2023-07-14T07:49:58.807Z,9808.00
2023-07-14T07:50:58.823Z,9608.00
2023-07-14T07:51:58.764Z,9092.00
2023-07-14T07:52:58.770Z,9048.00
2023-07-14T07:53:58.776Z,9472.00
2023-07-14T07:54:58.771Z,9044.00
2023-07-14T07:55:58.905Z,9032.00
2023-07-14T07:56:58.695Z,9336.00
2023-07-14T07:57:58.893Z,8324.00
2023-07-14T07:58:58.700Z,8744.00
2023-07-14T07:59:58.699Z,8812.00
2023-07-14T08:00:58.652Z,9020.00
2023-07-14T08:01:58.728Z,8900.00
2023-07-14T08:02:58.761Z,8236.00
2023-07-14T08:03:58.762Z,8612.00
2023-07-14T08:04:58.709Z,8560.00
2023-07-14T08:05:58.620Z,8224.00
2023-07-14T08:06:58.799Z,8984.00
2023-07-14T08:07:58.573Z,9580.00
2023-07-14T08:08:58.591Z,9756.00
2023-07-14T08:09:58.541Z,9744.00
2023-07-14T08:10:58.525Z,9692.00
2023-07-14T08:11:58.523Z,10192.00
2023-07-14T08:12:58.539Z,10068.00
2023-07-14T08:13:59.237Z,9876.00
2023-07-14T08:14:58.587Z,9336.00
2023-07-14T08:15:58.742Z,9308.00
2023-07-14T08:16:58.553Z,9116.00
2023-07-14T08:17:58.544Z,8788.00
2023-07-14T08:18:58.537Z,8780.00
2023-07-14T08:19:58.475Z,8264.00
2023-07-14T08:20:58.673Z,8672.00
2023-07-14T08:21:58.456Z,8544.00
2023-07-14T08:22:58.469Z,9132.00
2023-07-14T08:23:58.443Z,8248.00
2023-07-14T08:24:58.447Z,7604.00
2023-07-14T08:25:58.417Z,7964.00
2023-07-14T08:26:58.453Z,7476.00
2023-07-14T08:27:58.383Z,8344.00
2023-07-14T08:28:58.366Z,7992.00
2023-07-14T08:29:58.378Z,7412.00
2023-07-14T08:30:58.508Z,8312.00
2023-07-14T08:31:58.447Z,7652.00
2023-07-14T08:32:58.530Z,7452.00
2023-07-14T08:33:58.323Z,7236.00
2023-07-14T08:34:58.332Z,6972.00
2023-07-14T08:35:58.269Z,7044.00
2023-07-14T08:36:58.276Z,6352.00
2023-07-14T08:37:58.297Z,6352.00
2023-07-14T08:38:58.257Z,5876.00
2023-07-14T08:39:58.277Z,5732.00
2023-07-14T08:40:58.337Z,5676.00
2023-07-14T08:41:58.232Z,5288.00
2023-07-14T08:42:58.216Z,4884.00
2023-07-14T08:43:58.190Z,4492.00
2023-07-14T08:44:58.218Z,4168.00
2023-07-14T08:45:58.264Z,3780.00
2023-07-14T08:46:58.182Z,3440.00
2023-07-14T08:47:58.243Z,3080.00
2023-07-14T08:48:58.228Z,2732.00
2023-07-14T08:49:58.185Z,2392.00
2023-07-14T08:50:58.132Z,968.00
2023-07-14T08:51:58.145Z,2164.00
2023-07-14T08:52:58.137Z,1932.00
2023-07-14T08:53:58.125Z,1724.00
2023-07-14T08:54:58.221Z,1536.00
2023-07-14T08:55:58.079Z,1432.00
2023-07-14T08:56:58.112Z,1336.00
2023-07-14T08:57:58.053Z,1168.00
2023-07-14T08:58:58.306Z,1100.00
2023-07-14T08:59:58.081Z,1076.00
2023-07-14T09:00:58.103Z,1268.00
2023-07-14T09:01:58.015Z,1344.00
2023-07-14T09:02:58.040Z,1444.00
2023-07-14T09:03:58.101Z,1488.00
2023-07-14T09:04:57.976Z,1492.00
2023-07-14T09:05:57.978Z,1384.00
2023-07-14T09:06:57.978Z,1296.00
2023-07-14T09:07:57.958Z,1104.00
2023-07-14T09:08:57.951Z,892.00
2023-07-14T09:09:57.921Z,800.00
2023-07-14T09:10:57.956Z,788.00
2023-07-14T09:11:57.929Z,824.00
2023-07-14T09:12:57.934Z,816.00
2023-07-14T09:13:57.917Z,748.00
2023-07-14T09:14:57.882Z,700.00
2023-07-14T09:15:57.906Z,672.00
2023-07-14T09:16:57.903Z,652.00
2023-07-14T09:17:57.926Z,688.00
2023-07-14T09:18:57.956Z,740.00
2023-07-14T09:19:57.837Z,848.00
2023-07-14T09:20:57.881Z,916.00
2023-07-14T09:21:57.794Z,984.00
2023-07-14T09:22:59.496Z,1108.00
2023-07-14T09:23:57.761Z,1236.00
2023-07-14T09:24:57.752Z,1332.00
2023-07-14T09:25:57.740Z,1368.00
2023-07-14T09:26:57.747Z,1396.00
2023-07-14T09:27:57.759Z,1332.00
2023-07-14T09:28:57.763Z,1292.00
2023-07-14T09:29:57.753Z,1260.00
2023-07-14T09:30:57.963Z,1216.00
2023-07-14T09:31:57.701Z,1212.00
2023-07-14T09:32:57.714Z,1240.00
2023-07-14T09:33:57.696Z,1300.00
2023-07-14T09:34:57.671Z,1232.00
2023-07-14T09:35:57.652Z,1124.00
2023-07-14T09:36:57.731Z,1036.00
2023-07-14T09:37:58.608Z,1064.00
2023-07-14T09:38:57.631Z,1300.00
2023-07-14T09:39:57.576Z,1260.00
2023-07-14T09:40:57.700Z,1216.00
2023-07-14T09:41:57.676Z,1264.00
2023-07-14T09:42:57.576Z,1096.00
2023-07-14T09:43:57.541Z,1016.00
2023-07-14T09:44:57.540Z,1148.00
2023-07-14T09:45:57.591Z,1348.00
2023-07-14T09:46:57.592Z,1444.00
2023-07-14T09:47:57.759Z,1464.00
2023-07-14T09:48:57.559Z,1240.00
2023-07-14T09:49:57.480Z,1180.00
2023-07-14T09:50:57.491Z,1340.00
2023-07-14T09:51:57.447Z,1376.00
2023-07-14T09:52:57.462Z,1488.00
2023-07-14T09:53:57.407Z,1532.00
2023-07-14T09:54:57.461Z,1468.00
2023-07-14T09:55:57.414Z,1308.00
2023-07-14T09:56:57.378Z,1304.00
2023-07-14T09:58:10.922Z,1440.00
2023-07-14T09:58:58.396Z,1548.00
2023-07-14T09:59:57.382Z,1604.00
2023-07-14T10:00:57.394Z,1576.00
2023-07-14T10:01:57.349Z,1468.00
2023-07-14T10:02:57.434Z,1400.00
2023-07-14T10:03:57.328Z,1332.00
2023-07-14T10:04:57.422Z,1280.00
2023-07-14T10:05:57.301Z,1180.00
2023-07-14T10:06:57.280Z,1120.00
2023-07-14T10:07:57.259Z,1132.00
2023-07-14T10:08:57.266Z,1084.00
2023-07-14T10:09:57.285Z,1088.00
2023-07-14T10:10:57.261Z,1200.00
2023-07-14T10:11:57.254Z,1196.00
2023-07-14T10:12:57.227Z,1140.00
2023-07-14T10:13:57.240Z,1172.00
2023-07-14T10:14:57.266Z,1224.00
2023-07-14T10:15:57.191Z,1264.00
2023-07-14T10:16:57.211Z,1236.00
2023-07-14T10:17:57.262Z,1160.00
2023-07-14T10:18:57.235Z,1132.00
2023-07-14T10:19:57.244Z,1132.00
2023-07-14T10:20:57.150Z,1140.00
2023-07-14T10:21:57.125Z,1164.00
2023-07-14T10:22:57.248Z,1228.00
2023-07-14T10:23:57.099Z,1280.00
2023-07-14T10:24:57.105Z,1304.00
2023-07-14T10:25:57.109Z,1368.00
2023-07-14T10:26:57.095Z,1352.00
2023-07-14T10:27:57.114Z,1328.00
2023-07-14T10:28:59.311Z,1292.00
2023-07-14T10:29:57.029Z,1284.00
2023-07-14T10:30:57.087Z,1192.00
2023-07-14T10:31:57.080Z,1060.00
2023-07-14T10:32:57.035Z,1076.00
2023-07-14T10:33:57.032Z,964.00
2023-07-14T10:34:59.177Z,860.00
2023-07-14T10:35:57.013Z,800.00
2023-07-14T10:36:56.984Z,764.00
2023-07-14T10:37:56.948Z,848.00
2023-07-14T10:38:56.931Z,988.00
2023-07-14T10:39:56.918Z,988.00
2023-07-14T10:40:56.960Z,904.00
2023-07-14T10:41:56.949Z,908.00
2023-07-14T10:42:57.126Z,968.00
2023-07-14T10:43:56.930Z,988.00
2023-07-14T10:44:56.905Z,952.00
2023-07-14T10:45:56.946Z,892.00
2023-07-14T10:46:56.976Z,800.00
2023-07-14T10:47:56.973Z,680.00
2023-07-14T10:48:56.879Z,556.00
2023-07-14T10:49:56.849Z,496.00
2023-07-14T10:50:56.868Z,488.00
2023-07-14T10:51:56.846Z,488.00
2023-07-14T10:52:56.836Z,528.00
2023-07-14T10:53:56.891Z,616.00
2023-07-14T10:54:56.789Z,712.00
2023-07-14T10:55:57.715Z,784.00
2023-07-14T10:56:56.958Z,836.00
2023-07-14T10:57:56.776Z,884.00
2023-07-14T10:58:56.879Z,928.00
2023-07-14T10:59:56.753Z,976.00
2023-07-14T11:00:56.734Z,1020.00
2023-07-14T11:01:56.772Z,1080.00
2023-07-14T11:02:56.851Z,1136.00
2023-07-14T11:03:56.727Z,1156.00
2023-07-14T11:04:59.479Z,1180.00
2023-07-14T11:05:56.675Z,1204.00
2023-07-14T11:06:58.202Z,1236.00
2023-07-14T11:07:56.646Z,1252.00
2023-07-14T11:08:56.696Z,1276.00
2023-07-14T11:09:56.592Z,1280.00
2023-07-14T11:10:56.625Z,1260.00
2023-07-14T11:11:56.641Z,1120.00
2023-07-14T11:12:56.708Z,920.00
2023-07-14T11:13:56.640Z,768.00
2023-07-14T11:14:56.588Z,724.00
2023-07-14T11:15:56.604Z,836.00
2023-07-14T11:16:56.609Z,964.00
2023-07-14T11:17:56.578Z,1048.00
2023-07-14T11:18:56.609Z,1020.00
2023-07-14T11:19:56.537Z,1040.00
2023-07-14T11:20:56.498Z,1136.00
2023-07-14T11:22:05.825Z,1176.00
2023-07-14T11:22:57.548Z,1156.00
2023-07-14T11:23:56.470Z,1120.00
2023-07-14T11:24:56.704Z,1092.00
2023-07-14T11:25:56.447Z,1096.00
2023-07-14T11:26:56.431Z,1132.00
2023-07-14T11:27:56.393Z,1164.00
2023-07-14T11:28:56.802Z,1172.00
2023-07-14T11:29:56.448Z,1172.00
2023-07-14T11:30:56.522Z,1164.00
2023-07-14T11:31:56.441Z,1172.00
2023-07-14T11:32:56.437Z,1144.00
2023-07-14T11:33:56.423Z,1128.00
2023-07-14T11:34:56.381Z,1080.00
2023-07-14T11:35:56.330Z,1032.00
2023-07-14T11:36:56.333Z,912.00
2023-07-14T11:37:56.338Z,804.00
2023-07-14T11:38:56.322Z,764.00
2023-07-14T11:39:56.347Z,736.00
2023-07-14T11:40:56.416Z,804.00
2023-07-14T11:41:56.272Z,924.00
2023-07-14T11:42:56.264Z,912.00
2023-07-14T11:43:56.289Z,824.00
2023-07-14T11:44:56.273Z,756.00
2023-07-14T11:45:56.360Z,716.00
2023-07-14T11:46:56.284Z,724.00
2023-07-14T11:47:56.289Z,736.00
2023-07-14T11:48:56.298Z,716.00
2023-07-14T11:49:56.177Z,712.00
2023-07-14T11:50:56.224Z,680.00
2023-07-14T11:51:56.141Z,676.00
2023-07-14T11:52:56.194Z,664.00
2023-07-14T11:53:56.234Z,728.00
2023-07-14T11:54:56.200Z,792.00
2023-07-14T11:55:56.118Z,880.00
2023-07-14T11:56:56.137Z,872.00
2023-07-14T11:57:56.117Z,812.00
2023-07-14T11:58:56.122Z,800.00
2023-07-14T11:59:56.130Z,832.00
2023-07-14T12:00:56.057Z,752.00
2023-07-14T12:01:56.077Z,676.00
2023-07-14T12:02:56.126Z,668.00
2023-07-14T12:03:56.100Z,764.00
2023-07-14T12:04:56.137Z,744.00
2023-07-14T12:05:56.011Z,680.00
2023-07-14T12:06:56.001Z,600.00
2023-07-14T12:07:55.986Z,568.00
2023-07-14T12:08:55.996Z,636.00
2023-07-14T12:09:55.953Z,604.00
2023-07-14T12:10:55.973Z,556.00
2023-07-14T12:11:55.970Z,532.00
2023-07-14T12:12:56.042Z,512.00
2023-07-14T12:13:55.907Z,512.00
2023-07-14T12:14:55.922Z,500.00
2023-07-14T12:15:55.985Z,560.00
2023-07-14T12:16:56.064Z,616.00
2023-07-14T12:17:56.016Z,672.00
2023-07-14T12:18:55.912Z,604.00
2023-07-14T12:19:55.894Z,544.00
2023-07-14T12:20:55.938Z,532.00
2023-07-14T12:21:55.892Z,544.00
2023-07-14T12:22:55.900Z,604.00
2023-07-14T12:23:55.850Z,696.00
2023-07-14T12:24:55.853Z,756.00
2023-07-14T12:25:55.877Z,832.00
2023-07-14T12:26:55.815Z,832.00
2023-07-14T12:27:55.867Z,776.00
2023-07-14T12:28:55.826Z,772.00
2023-07-14T12:29:58.049Z,888.00
2023-07-14T12:30:55.810Z,992.00
2023-07-14T12:31:55.863Z,980.00
2023-07-14T12:32:55.840Z,968.00